Time;durP1;ratioP1;P1;durP2;ratioP2;P2;SDS_P1;SDS_P2;PMS_P1;PMS_P2;Temp;Humidity;BMP_temperature;BMP_pressure;BME280_temperature;BME280_humidity;BME280_pressure;Samples;Min_cycle;Max_cycle;Signal;HPM_P1;HPM_P2
2021/12/03 00:02:08;;;;;;;8.60;4.50;;;1.50;99.90;;;;;;5060254;28;20037;-57
2021/12/03 00:04:35;;;;;;;6.78;4.10;;;1.50;99.90;;;;;;5065242;28;20433;-56
2021/12/03 00:07:02;;;;;;;6.78;3.38;;;1.50;99.90;;;;;;5067225;28;20543;-54
2021/12/03 00:09:34;;;;;;;9.63;5.25;;;1.40;99.90;;;;;;5058827;28;20048;-56
2021/12/03 00:12:03;;;;;;;10.10;5.18;;;1.40;99.90;;;;;;5051376;28;20045;-57
2021/12/03 00:14:31;;;;;;;10.52;5.88;;;1.40;99.90;;;;;;5050873;28;20626;-56
2021/12/03 00:16:58;;;;;;;11.23;5.78;;;1.30;99.90;;;;;;5051272;28;20068;-58
2021/12/03 00:19:26;;;;;;;14.02;6.68;;;1.20;99.90;;;;;;5051426;28;20428;-56
2021/12/03 00:21:52;;;;;;;12.02;5.97;;;1.10;99.90;;;;;;5051100;28;20091;-57
2021/12/03 00:24:20;;;;;;;10.48;5.68;;;1.00;99.90;;;;;;5050968;28;20544;-56
2021/12/03 00:26:47;;;;;;;10.98;5.90;;;1.00;99.90;;;;;;5051103;28;20049;-56
2021/12/03 00:29:14;;;;;;;13.57;6.57;;;0.90;99.90;;;;;;5049862;28;20136;-56
2021/12/03 00:31:41;;;;;;;17.75;7.00;;;0.90;99.90;;;;;;5051047;28;20048;-57
2021/12/03 00:34:08;;;;;;;14.25;7.35;;;0.90;99.90;;;;;;5050862;28;20045;-55
2021/12/03 00:36:35;;;;;;;11.70;5.13;;;0.80;99.90;;;;;;5051061;28;20037;-57
2021/12/03 00:39:04;;;;;;;12.38;6.72;;;0.90;99.90;;;;;;5051276;28;20600;-56
2021/12/03 00:41:41;;;;;;;13.68;6.82;;;0.80;99.90;;;;;;5051107;28;20090;-56
2021/12/03 00:44:08;;;;;;;14.55;6.22;;;0.80;99.90;;;;;;5050583;28;20045;-55
2021/12/03 00:46:34;;;;;;;13.98;6.07;;;0.80;99.90;;;;;;5051207;28;20075;-55
2021/12/03 00:49:01;;;;;;;11.23;6.22;;;0.70;99.90;;;;;;5051009;28;20045;-54
2021/12/03 00:51:28;;;;;;;10.90;6.10;;;0.70;99.90;;;;;;5051028;28;20464;-56
2021/12/03 00:53:55;;;;;;;7.25;4.32;;;0.70;99.90;;;;;;5050311;28;20041;-56
2021/12/03 00:56:22;;;;;;;12.70;6.18;;;0.70;99.90;;;;;;5050988;28;20478;-58
2021/12/03 00:58:50;;;;;;;14.38;6.55;;;0.70;99.90;;;;;;5033304;28;20547;-56
2021/12/03 01:01:17;;;;;;;12.00;6.65;;;0.70;99.90;;;;;;5050736;28;20045;-56
2021/12/03 01:03:44;;;;;;;13.73;6.57;;;0.70;99.90;;;;;;5050635;28;20069;-55
2021/12/03 01:06:11;;;;;;;12.35;5.93;;;0.70;99.90;;;;;;5050824;28;20072;-56
2021/12/03 01:08:38;;;;;;;14.38;6.03;;;0.70;99.90;;;;;;5050857;28;20044;-57
2021/12/03 01:11:07;;;;;;;13.23;6.82;;;0.80;99.90;;;;;;5050942;28;20080;-57
2021/12/03 01:13:36;;;;;;;15.38;7.28;;;0.80;99.90;;;;;;5050461;28;20049;-56
2021/12/03 01:16:04;;;;;;;12.45;6.07;;;0.90;99.90;;;;;;5050822;28;20072;-58
2021/12/03 01:18:32;;;;;;;13.00;6.75;;;0.90;99.90;;;;;;5050709;28;20497;-54
2021/12/03 01:20:59;;;;;;;11.15;5.35;;;0.90;99.90;;;;;;5053947;28;20489;-57
2021/12/03 01:23:26;;;;;;;13.77;6.57;;;0.90;99.90;;;;;;5053730;28;20053;-58
2021/12/03 01:25:53;;;;;;;14.52;6.50;;;0.90;99.90;;;;;;5054435;28;20044;-56
2021/12/03 01:28:20;;;;;;;10.18;5.90;;;0.90;99.90;;;;;;5054237;28;20245;-57
2021/12/03 01:30:48;;;;;;;12.70;6.18;;;0.90;99.90;;;;;;5054135;28;20574;-56
2021/12/03 01:33:15;;;;;;;10.63;5.90;;;0.90;99.90;;;;;;5053889;28;20049;-58
2021/12/03 01:35:42;;;;;;;14.52;5.93;;;0.90;99.90;;;;;;5053795;28;20048;-58
2021/12/03 01:38:09;;;;;;;14.68;6.88;;;0.90;99.90;;;;;;5054039;28;20047;-58
2021/12/03 01:40:37;;;;;;;13.80;6.13;;;0.90;99.90;;;;;;5054146;28;20037;-58
2021/12/03 01:43:05;;;;;;;12.10;6.13;;;1.00;99.90;;;;;;5053718;28;20045;-57
2021/12/03 01:45:38;;;;;;;12.02;6.13;;;1.00;99.90;;;;;;5053825;28;20563;-56
2021/12/03 01:48:06;;;;;;;11.02;5.90;;;1.00;99.90;;;;;;5053644;28;20099;-56
2021/12/03 01:50:36;;;;;;;11.05;5.43;;;1.00;99.90;;;;;;5054066;28;20045;-56
2021/12/03 01:53:05;;;;;;;11.68;5.55;;;1.00;99.90;;;;;;5053502;28;20163;-58
2021/12/03 01:55:32;;;;;;;10.55;5.55;;;1.00;99.90;;;;;;5053835;28;20047;-55
2021/12/03 01:57:59;;;;;;;10.52;5.28;;;1.00;99.90;;;;;;5053709;28;20044;-55
2021/12/03 02:00:35;;;;;;;12.43;5.68;;;1.10;99.90;;;;;;5053459;28;20041;-56
2021/12/03 02:03:05;;;;;;;10.02;5.00;;;1.00;99.90;;;;;;5053335;28;20071;-55
2021/12/03 02:05:33;;;;;;;11.55;5.47;;;1.00;99.90;;;;;;5053612;28;20048;-56
2021/12/03 02:08:00;;;;;;;11.55;5.50;;;1.10;99.90;;;;;;5053524;28;20072;-57
2021/12/03 02:10:27;;;;;;;8.52;4.53;;;1.10;99.90;;;;;;5053481;28;20048;-57
2021/12/03 02:12:55;;;;;;;12.73;6.60;;;1.10;99.90;;;;;;5053128;28;20071;-53
2021/12/03 02:15:22;;;;;;;13.40;6.57;;;1.10;99.90;;;;;;5053038;28;20044;-56
2021/12/03 02:17:49;;;;;;;12.48;5.53;;;1.10;99.90;;;;;;5053357;28;20072;-57
2021/12/03 02:20:17;;;;;;;11.30;5.75;;;1.10;99.90;;;;;;5053458;28;20099;-56
2021/12/03 02:22:44;;;;;;;11.88;5.82;;;1.10;99.90;;;;;;5053333;28;20049;-56
2021/12/03 02:25:20;;;;;;;14.32;6.85;;;1.10;99.90;;;;;;5052721;28;20041;-55
2021/12/03 02:27:52;;;;;;;11.50;5.38;;;1.10;99.90;;;;;;5053110;28;20091;-57
2021/12/03 02:30:19;;;;;;;9.45;4.78;;;1.10;99.90;;;;;;5052679;28;20045;-56
2021/12/03 02:32:49;;;;;;;13.23;4.95;;;1.10;99.90;;;;;;5052249;28;20120;-56
2021/12/03 02:35:22;;;;;;;10.55;6.10;;;1.10;99.90;;;;;;5052612;28;20547;-56
2021/12/03 02:37:50;;;;;;;14.38;6.40;;;1.00;99.90;;;;;;5053017;28;20044;-57
2021/12/03 02:40:18;;;;;;;10.98;5.90;;;1.00;99.90;;;;;;5052761;28;20119;-55
2021/12/03 02:42:45;;;;;;;11.35;5.70;;;1.10;99.90;;;;;;5053240;28;20431;-53
2021/12/03 02:45:13;;;;;;;9.82;5.57;;;1.10;99.90;;;;;;5052691;28;20386;-56
2021/12/03 02:47:41;;;;;;;13.68;6.32;;;1.10;99.90;;;;;;5052585;28;20550;-57
2021/12/03 02:50:08;;;;;;;;;;;1.00;99.90;;;;;;5053155;28;20640;-54
2021/12/03 02:52:36;;;;;;;9.85;5.03;;;1.00;99.90;;;;;;5052593;28;19928;-57
2021/12/03 02:55:04;;;;;;;;;;;1.00;99.90;;;;;;5053009;28;20094;-56
2021/12/03 02:57:31;;;;;;;15.38;6.88;;;0.90;99.90;;;;;;5052384;28;20377;-56
2021/12/03 02:59:58;;;;;;;17.02;8.30;;;0.90;99.90;;;;;;5052468;28;20040;-57
2021/12/03 03:02:25;;;;;;;17.30;8.15;;;1.00;99.90;;;;;;5052615;28;20041;-57
2021/12/03 03:04:52;;;;;;;18.27;8.23;;;1.00;99.90;;;;;;5052373;28;20404;-57
2021/12/03 03:07:20;;;;;;;;;;;1.00;99.90;;;;;;5052747;28;20087;-57
2021/12/03 03:09:47;;;;;;;20.67;8.85;;;1.00;99.90;;;;;;5052316;28;20487;-57
2021/12/03 03:12:14;;;;;;;13.60;7.65;;;1.00;99.90;;;;;;5052322;28;20045;-58
2021/12/03 03:14:45;;;;;;;;;;;0.90;99.90;;;;;;5052198;28;20115;-56
2021/12/03 03:17:12;;;;;;;13.77;7.22;;;0.90;99.90;;;;;;5052124;28;20028;-56
2021/12/03 03:19:39;;;;;;;17.15;8.05;;;0.90;99.90;;;;;;5052039;28;20037;-57
2021/12/03 03:22:06;;;;;;;17.20;8.15;;;1.00;99.90;;;;;;5051958;28;20490;-56
2021/12/03 03:24:33;;;;;;;20.35;8.60;;;1.00;99.90;;;;;;5051666;28;20079;-55
2021/12/03 03:27:01;;;;;;;18.63;8.27;;;1.00;99.90;;;;;;5052120;28;20049;-56
2021/12/03 03:29:29;;;;;;;21.48;9.05;;;1.00;99.90;;;;;;5051877;28;20049;-56
2021/12/03 03:31:56;;;;;;;17.52;8.02;;;1.00;99.90;;;;;;5052519;28;20041;-55
2021/12/03 03:34:23;;;;;;;20.83;9.68;;;0.90;99.90;;;;;;5051486;28;20417;-55
2021/12/03 03:36:51;;;;;;;16.92;8.77;;;1.00;99.90;;;;;;5051627;28;20045;-57
2021/12/03 03:39:20;;;;;;;18.80;8.65;;;0.90;99.90;;;;;;5051789;28;20137;-53
2021/12/03 03:41:47;;;;;;;19.52;9.68;;;0.90;99.90;;;;;;5051740;28;20040;-57
2021/12/03 03:44:19;;;;;;;23.48;9.25;;;0.80;99.90;;;;;;5051348;28;20120;-57
2021/12/03 03:46:49;;;;;;;22.25;10.40;;;0.90;99.90;;;;;;5051932;28;20166;-57
2021/12/03 03:49:16;;;;;;;26.17;11.27;;;0.90;99.90;;;;;;5051601;28;20045;-57
2021/12/03 03:51:43;;;;;;;22.80;9.57;;;0.90;99.90;;;;;;5051533;28;20044;-56
2021/12/03 03:54:10;;;;;;;18.17;7.40;;;0.90;99.90;;;;;;5051293;28;20049;-57
2021/12/03 03:56:36;;;;;;;21.40;10.52;;;0.90;99.90;;;;;;5051592;28;20555;-55
2021/12/03 03:59:03;;;;;;;25.90;11.25;;;0.90;99.90;;;;;;5051312;28;20069;-55
2021/12/03 04:01:30;;;;;;;25.02;11.45;;;0.80;99.90;;;;;;5051658;28;20096;-57
2021/12/03 04:03:57;;;;;;;24.73;11.77;;;0.80;99.90;;;;;;5051212;28;20481;-55
2021/12/03 04:06:25;;;;;;;28.17;12.55;;;0.80;99.90;;;;;;5051463;28;20075;-56
2021/12/03 04:08:51;;;;;;;26.08;11.48;;;0.70;99.90;;;;;;5051654;28;20450;-56
2021/12/03 04:11:22;;;;;;;18.63;7.95;;;0.70;99.90;;;;;;5051469;28;20100;-53
2021/12/03 04:13:49;;;;;;;29.08;12.73;;;0.80;99.90;;;;;;5050766;28;20041;-55
2021/12/03 04:16:17;;;;;;;31.05;12.45;;;0.80;99.90;;;;;;5051459;28;20049;-55
2021/12/03 04:18:44;;;;;;;25.77;12.70;;;0.80;99.90;;;;;;5051261;28;20048;-54
2021/12/03 04:21:11;;;;;;;28.27;11.90;;;0.80;99.90;;;;;;5051347;28;20099;-54
2021/12/03 04:23:38;;;;;;;30.30;11.75;;;0.70;99.90;;;;;;5050893;28;20241;-52
2021/12/03 04:26:05;;;;;;;29.13;11.60;;;0.70;99.90;;;;;;5051357;28;20041;-57
2021/12/03 04:28:32;;;;;;;27.88;12.10;;;0.70;99.90;;;;;;5051039;28;20075;-57
2021/12/03 04:30:59;;;;;;;;;;;0.70;99.90;;;;;;5051803;28;20061;-57
2021/12/03 04:33:27;;;;;;;27.95;12.40;;;0.70;99.90;;;;;;5050924;28;19921;-57
2021/12/03 04:35:54;;;;;;;31.27;12.75;;;0.70;99.90;;;;;;5050971;28;20037;-55
2021/12/03 04:38:21;;;;;;;28.15;13.15;;;0.80;99.90;;;;;;5051121;28;20116;-54
2021/12/03 04:40:49;;;;;;;32.88;13.35;;;0.80;99.90;;;;;;5051132;28;20119;-57
2021/12/03 04:43:16;;;;;;;27.17;12.10;;;0.80;99.90;;;;;;5051217;28;20451;-57
2021/12/03 04:45:44;;;;;;;32.60;12.93;;;0.90;99.90;;;;;;5051071;28;20048;-56
2021/12/03 04:48:11;;;;;;;27.55;12.25;;;0.80;99.90;;;;;;5051057;28;20456;-55
2021/12/03 04:50:41;;;;;;;32.15;13.23;;;0.80;99.90;;;;;;5051225;28;20049;-55
2021/12/03 04:53:09;;;;;;;24.52;11.88;;;0.70;99.90;;;;;;5050960;28;20045;-58
2021/12/03 04:55:37;;;;;;;27.75;11.60;;;0.70;99.90;;;;;;5053526;28;20099;-57
2021/12/03 04:58:05;;;;;;;26.10;11.73;;;0.70;99.90;;;;;;5054773;28;20041;-57
2021/12/03 05:00:36;;;;;;;30.15;12.60;;;0.70;99.90;;;;;;5054787;28;20052;-56
2021/12/03 05:03:04;;;;;;;27.58;11.82;;;0.80;99.90;;;;;;5036370;28;20417;-56
2021/12/03 05:05:32;;;;;;;25.42;10.38;;;0.70;99.90;;;;;;5054744;28;20037;-56
2021/12/03 05:08:04;;;;;;;27.40;10.88;;;0.70;99.90;;;;;;5054312;28;20045;-56
2021/12/03 05:10:34;;;;;;;27.10;10.25;;;0.70;99.90;;;;;;5054596;28;20136;-55
2021/12/03 05:13:05;;;;;;;21.27;9.48;;;0.70;99.90;;;;;;5053326;28;20040;-57
2021/12/03 05:15:33;;;;;;;21.58;9.43;;;0.70;99.90;;;;;;5054808;28;20094;-57
2021/12/03 05:18:01;;;;;;;20.45;9.13;;;0.70;99.90;;;;;;5054426;28;20543;-56
2021/12/03 05:20:28;;;;;;;20.52;9.40;;;0.70;99.90;;;;;;5054360;28;20045;-54
2021/12/03 05:22:57;;;;;;;21.55;9.32;;;0.60;99.90;;;;;;5054042;28;20052;-56
2021/12/03 05:25:24;;;;;;;19.92;9.55;;;0.50;99.90;;;;;;5054155;28;20041;-57
2021/12/03 05:27:51;;;;;;;;;;;0.50;99.90;;;;;;5054771;28;20452;-56
2021/12/03 05:30:19;;;;;;;27.23;10.00;;;0.60;99.90;;;;;;5095506;22;19958;-57
2021/12/03 05:32:46;;;;;;;21.02;9.65;;;0.60;99.90;;;;;;5093567;28;20127;-56
2021/12/03 05:35:13;;;;;;;22.08;8.93;;;0.50;99.90;;;;;;5093063;28;20052;-55
2021/12/03 05:37:40;;;;;;;22.80;10.77;;;0.50;99.90;;;;;;5094118;28;20066;-57
2021/12/03 05:40:09;;;;;;;21.60;8.80;;;0.50;99.90;;;;;;5094465;28;20074;-54
2021/12/03 05:42:37;;;;;;;22.15;9.80;;;0.50;99.90;;;;;;5094308;28;20096;-55
2021/12/03 05:45:09;;;;;;;21.02;9.68;;;0.70;99.90;;;;;;5090306;28;20127;-54
2021/12/03 05:47:36;;;;;;;21.08;10.13;;;0.60;99.90;;;;;;5076249;28;20055;-57
2021/12/03 05:50:05;;;;;;;22.65;9.02;;;0.60;99.90;;;;;;5094277;28;20450;-56
2021/12/03 05:52:32;;;;;;;22.80;10.13;;;0.60;99.90;;;;;;5094121;28;20036;-56
2021/12/03 05:54:59;;;;;;;22.25;10.05;;;0.50;99.90;;;;;;5093498;28;20043;-55
2021/12/03 05:57:26;;;;;;;23.90;10.65;;;0.60;99.90;;;;;;5093971;28;20048;-55
2021/12/03 05:59:52;;;;;;;22.08;11.13;;;0.70;99.90;;;;;;5093769;28;20047;-58
2021/12/03 06:02:20;;;;;;;26.80;11.95;;;0.70;99.90;;;;;;5075101;28;20110;-56
2021/12/03 06:04:48;;;;;;;38.85;16.23;;;0.70;99.90;;;;;;5073007;28;20040;-56
2021/12/03 06:07:15;;;;;;;39.83;15.35;;;0.70;99.90;;;;;;5091557;28;20044;-57
2021/12/03 06:09:42;;;;;;;38.78;15.93;;;0.70;99.90;;;;;;5093225;28;20139;-54
2021/12/03 06:12:10;;;;;;;58.00;22.05;;;0.60;99.90;;;;;;5077973;28;20063;-56
2021/12/03 06:14:36;;;;;;;65.93;24.52;;;0.70;99.90;;;;;;5073163;28;20051;-55
2021/12/03 06:17:04;;;;;;;57.55;25.75;;;0.70;99.90;;;;;;5075828;28;20509;-54
2021/12/03 06:19:33;;;;;;;52.80;22.15;;;0.70;99.90;;;;;;5091238;28;20528;-51
2021/12/03 06:22:00;;;;;;;28.77;11.13;;;0.70;99.90;;;;;;5093546;28;20048;-53
2021/12/03 06:24:27;;;;;;;22.35;9.20;;;0.70;99.90;;;;;;5075435;28;20050;-51
2021/12/03 06:26:54;;;;;;;30.35;11.68;;;0.60;99.90;;;;;;5074246;28;20044;-50
2021/12/03 06:29:20;;;;;;;8.45;4.25;;;0.60;99.90;;;;;;5079261;28;20412;-50
2021/12/03 06:31:47;;;;;;;14.18;6.38;;;0.50;99.90;;;;;;5072737;28;20531;-50
2021/12/03 06:34:14;;;;;;;16.67;6.25;;;0.50;99.90;;;;;;5079237;28;20058;-50
2021/12/03 06:36:41;;;;;;;12.75;6.18;;;0.50;99.90;;;;;;5082088;28;20493;-51
2021/12/03 06:39:08;;;;;;;12.35;5.43;;;0.40;99.90;;;;;;5083396;28;20546;-53
2021/12/03 06:41:35;;;;;;;13.10;6.18;;;0.40;99.90;;;;;;5081023;28;20036;-51
2021/12/03 06:44:03;;;;;;;12.15;6.35;;;0.30;99.90;;;;;;5082893;28;20101;-50
2021/12/03 06:46:30;;;;;;;15.30;6.78;;;0.20;99.90;;;;;;5077975;28;20040;-51
2021/12/03 06:48:57;;;;;;;19.35;6.72;;;0.30;99.90;;;;;;5073007;28;20044;-53
2021/12/03 06:51:24;;;;;;;12.50;6.13;;;0.20;99.90;;;;;;5080733;28;20488;-52
2021/12/03 06:53:57;;;;;;;13.35;6.40;;;0.20;99.90;;;;;;5084661;28;20056;-51
2021/12/03 06:56:32;;;;;;;13.65;5.78;;;0.30;99.90;;;;;;5072686;28;20091;-54
2021/12/03 06:58:59;;;;;;;9.98;5.25;;;0.30;99.90;;;;;;5072428;28;20093;-52
2021/12/03 07:01:26;;;;;;;;;;;0.30;99.90;;;;;;5072662;28;20455;-52
2021/12/03 07:03:53;;;;;;;20.33;6.35;;;0.30;99.90;;;;;;5071618;28;20355;-52
2021/12/03 07:06:20;;;;;;;12.75;5.10;;;0.30;99.90;;;;;;5071235;28;20076;-53
2021/12/03 07:08:47;;;;;;;17.92;6.30;;;0.40;99.90;;;;;;5072181;28;20044;-52
2021/12/03 07:11:14;;;;;;;9.20;3.97;;;0.40;99.90;;;;;;5072270;28;20056;-49
2021/12/03 07:13:40;;;;;;;24.55;6.07;;;0.40;99.90;;;;;;5071840;28;20040;-50
2021/12/03 07:16:07;;;;;;;13.00;5.80;;;0.50;99.90;;;;;;5072323;28;20033;-50
2021/12/03 07:18:35;;;;;;;11.70;6.07;;;0.40;99.90;;;;;;5071827;28;20044;-50
2021/12/03 07:21:01;;;;;;;13.05;6.47;;;0.40;99.90;;;;;;5072027;28;20510;-49
2021/12/03 07:23:28;;;;;;;15.25;7.15;;;0.30;99.90;;;;;;5071371;28;20048;-50
2021/12/03 07:25:57;;;;;;;16.10;6.93;;;0.40;99.90;;;;;;5072263;28;20064;-50
2021/12/03 07:28:24;;;;;;;17.73;7.43;;;0.40;99.90;;;;;;5083709;28;20040;-49
2021/12/03 07:30:51;;;;;;;15.45;6.93;;;0.40;99.90;;;;;;5090063;28;20446;-51
2021/12/03 07:33:18;;;;;;;13.70;7.22;;;0.50;99.90;;;;;;5091475;28;20430;-50
2021/12/03 07:35:46;;;;;;;14.85;7.63;;;0.40;99.90;;;;;;5091768;28;20058;-50
2021/12/03 07:38:17;;;;;;;16.98;7.97;;;0.50;99.90;;;;;;5092192;28;20044;-50
2021/12/03 07:40:45;;;;;;;18.83;8.98;;;0.50;99.90;;;;;;5092364;28;20075;-50
2021/12/03 07:43:12;;;;;;;21.52;8.45;;;0.60;99.90;;;;;;5091530;28;20570;-50
2021/12/03 07:45:39;;;;;;;19.08;7.78;;;0.60;99.90;;;;;;5091270;28;20082;-54
2021/12/03 07:48:07;;;;;;;16.52;7.40;;;0.90;99.90;;;;;;5091243;28;20042;-51
2021/12/03 07:50:37;;;;;;;;;;;0.60;99.90;;;;;;5092441;28;20450;-49
2021/12/03 07:53:04;;;;;;;26.02;11.60;;;0.60;99.90;;;;;;5091572;28;20299;-50
2021/12/03 07:55:31;;;;;;;28.15;12.00;;;0.60;99.90;;;;;;5091873;28;20044;-50
2021/12/03 07:58:01;;;;;;;21.92;11.85;;;0.70;99.90;;;;;;5091874;28;20119;-52
2021/12/03 08:00:28;;;;;;;22.30;10.65;;;0.70;99.90;;;;;;5091530;28;20093;-54
2021/12/03 08:03:15;;;;;;;23.42;12.65;;;0.70;99.90;;;;;;5091445;28;20507;-50
2021/12/03 08:05:42;;;;;;;21.08;10.98;;;0.70;99.90;;;;;;5091721;28;20646;-50
2021/12/03 08:08:09;;;;;;;27.50;12.93;;;0.80;99.90;;;;;;5091717;28;20044;-50
2021/12/03 08:10:37;;;;;;;27.30;10.30;;;0.80;99.90;;;;;;5091652;28;20550;-53
2021/12/03 08:13:03;;;;;;;;;;;0.80;99.90;;;;;;5091592;28;20492;-49
2021/12/03 08:15:36;;;;;;;19.20;10.32;;;0.80;99.90;;;;;;5091515;28;19920;-49
2021/12/03 08:18:05;;;;;;;28.48;12.75;;;1.00;99.90;;;;;;5091574;28;20044;-50
2021/12/03 08:20:32;;;;;;;24.25;11.18;;;1.10;99.90;;;;;;5091473;28;20089;-53
2021/12/03 08:23:00;;;;;;;18.98;10.05;;;1.20;99.90;;;;;;5091376;28;20040;-50
2021/12/03 08:25:28;;;;;;;20.80;10.25;;;1.40;99.90;;;;;;5091541;28;20492;-51
2021/12/03 08:27:55;;;;;;;40.53;17.58;;;1.20;99.90;;;;;;5091443;28;20036;-50
2021/12/03 08:30:26;;;;;;;24.20;10.35;;;1.30;99.90;;;;;;5091096;28;20093;-50
2021/12/03 08:32:53;;;;;;;15.15;7.97;;;1.40;99.90;;;;;;5084234;28;20437;-53
2021/12/03 08:35:20;;;;;;;10.93;6.43;;;1.40;99.90;;;;;;5075261;28;20101;-50
2021/12/03 08:37:49;;;;;;;17.65;8.98;;;1.30;99.90;;;;;;5075340;28;20400;-50
2021/12/03 08:40:17;;;;;;;16.20;7.97;;;1.40;99.90;;;;;;5075286;28;20098;-50
2021/12/03 08:42:45;;;;;;;20.58;9.32;;;1.40;99.90;;;;;;5075159;28;20407;-53
2021/12/03 08:45:12;;;;;;;;;;;1.30;99.90;;;;;;5075287;28;20048;-51
2021/12/03 08:47:40;;;;;;;30.30;14.85;;;1.50;99.90;;;;;;5075177;28;19921;-50
2021/12/03 08:50:14;;;;;;;34.13;14.38;;;1.60;99.90;;;;;;5074840;28;20048;-52
2021/12/03 08:55:31;;;;;;;15.30;8.10;;;1.40;99.90;;;;;;5075000;28;20091;-50
2021/12/03 08:57:58;;;;;;;28.50;9.45;;;1.10;99.90;;;;;;5075038;28;20071;-50
2021/12/03 09:00:25;;;;;;;19.30;10.05;;;1.10;99.90;;;;;;5075004;28;20376;-49
2021/12/03 09:02:52;;;;;;;19.25;9.05;;;1.10;99.90;;;;;;5076472;28;20040;-49
2021/12/03 09:05:19;;;;;;;;;;;1.20;99.90;;;;;;5090645;28;20093;-49
2021/12/03 09:07:46;;;;;;;20.52;9.32;;;1.10;99.90;;;;;;5094936;28;19924;-50
2021/12/03 09:10:18;;;;;;;28.73;15.30;;;1.30;99.90;;;;;;5095191;28;20058;-50
2021/12/03 09:12:46;;;;;;;27.17;13.52;;;1.30;99.90;;;;;;5095112;28;20504;-50
2021/12/03 09:15:15;;;;;;;;;;;1.40;99.90;;;;;;5094892;28;20075;-54
2021/12/03 09:22:46;;;;;;;31.73;15.68;;;1.50;99.90;;;;;;5094680;28;20050;-50
2021/12/03 09:25:19;;;;;;;31.33;14.95;;;1.40;99.90;;;;;;5094357;28;20504;-49
2021/12/03 09:27:46;;;;;;;21.25;10.90;;;1.50;99.90;;;;;;5094772;28;20044;-50
2021/12/03 09:30:15;;;;;;;16.05;7.72;;;1.60;99.90;;;;;;5094563;28;20045;-51
2021/12/03 09:32:52;;;;;;;18.38;9.23;;;1.60;99.90;;;;;;5093322;28;20408;-52
2021/12/03 09:35:19;;;;;;;31.38;11.88;;;1.50;99.90;;;;;;5083830;28;20052;-50
2021/12/03 09:37:46;;;;;;;42.10;15.23;;;1.40;99.90;;;;;;5076459;28;20089;-50
2021/12/03 09:40:20;;;;;;;25.40;10.00;;;1.40;99.90;;;;;;5093963;28;20113;-51
2021/12/03 09:42:48;;;;;;;21.40;10.90;;;1.50;99.90;;;;;;5094318;28;20454;-52
2021/12/03 09:45:15;;;;;;;18.95;9.57;;;1.60;99.90;;;;;;5093850;28;20087;-50
2021/12/03 09:47:42;;;;;;;16.50;8.07;;;1.90;99.90;;;;;;5094328;28;20040;-51
2021/12/03 09:50:14;;;;;;;12.63;7.30;;;2.00;99.90;;;;;;5093977;28;20488;-52
2021/12/03 09:53:13;;;;;;;16.83;8.52;;;2.30;99.90;;;;;;5090488;28;20047;-50
2021/12/03 09:55:32;;;;;;;17.40;8.48;;;2.50;99.90;;;;;;5074227;28;20453;-50
2021/12/03 09:58:40;;;;;;;18.75;9.05;;;2.60;99.90;;;;;;5073723;28;20062;-51
2021/12/03 10:00:58;;;;;;;19.67;9.45;;;2.60;99.90;;;;;;5073634;28;20050;-50
2021/12/03 10:07:55;;;;;;;13.52;6.97;;;2.70;99.90;;;;;;5027305;28;20056;-50
2021/12/03 10:35:15;;;;;;;11.27;5.85;;;4.60;99.90;;;;;;5072972;28;20091;-50
2021/12/03 10:38:04;;;;;;;14.90;6.35;;;5.00;99.90;;;;;;5073013;28;20129;-50
2021/12/03 10:43:36;;;;;;;12.77;5.20;;;5.00;99.90;;;;;;5072360;28;20044;-53
2021/12/03 10:49:04;;;;;;;9.02;4.90;;;4.40;99.90;;;;;;5072670;28;20044;-52
2021/12/03 10:51:49;;;;;;;12.52;5.95;;;4.10;99.90;;;;;;5072309;28;20055;-50
2021/12/03 10:57:10;;;;;;;9.15;4.90;;;3.60;99.90;;;;;;5072938;28;20459;-51
2021/12/03 10:59:51;;;;;;;12.25;5.00;;;3.40;99.90;;;;;;5072546;28;20110;-50
2021/12/03 11:03:18;;;;;;;9.52;4.70;;;3.20;99.90;;;;;;5072133;28;20045;-51
2021/12/03 12:24:39;;;;;;;11.40;5.53;;;3.20;99.90;;;;;;5089965;28;20056;-50
2021/12/03 13:08:55;;;;;;;;;;;2.50;99.90;;;;;;5091804;28;20048;-50
2021/12/03 13:17:18;;;;;;;8.27;4.47;;;2.50;99.90;;;;;;5093634;28;20094;-51
2021/12/03 13:29:39;;;;;;;10.30;5.65;;;2.50;99.90;;;;;;4943131;28;20262;-53
2021/12/03 14:56:25;;;;;;;18.95;11.20;;;0.50;99.90;;;;;;5168784;27;20139;-49
2021/12/03 14:59:17;;;;;;;17.70;10.30;;;0.30;99.90;;;;;;5153091;27;20043;-50
2021/12/03 15:01:50;;;;;;;15.85;8.32;;;0.20;99.90;;;;;;5169851;22;20044;-50
2021/12/03 15:04:39;;;;;;;16.05;9.05;;;0.20;99.90;;;;;;5107785;28;20036;-51
2021/12/03 15:07:17;;;;;;;20.60;8.25;;;0.10;99.90;;;;;;5106910;28;20071;-51
2021/12/03 15:09:46;;;;;;;14.80;8.03;;;0.00;99.90;;;;;;5109190;28;20050;-51
2021/12/03 15:12:57;;;;;;;18.30;9.20;;;-0.20;99.90;;;;;;5119327;27;20289;-51
2021/12/03 15:37:10;;;;;;;18.58;9.50;;;-0.50;99.90;;;;;;5124828;28;20044;-51
2021/12/03 16:03:57;;;;;;;21.15;10.07;;;-0.60;99.90;;;;;;5108914;28;20048;-50
2021/12/03 16:06:40;;;;;;;14.18;6.95;;;-0.60;99.90;;;;;;5105239;28;20144;-50
2021/12/03 16:09:38;;;;;;;16.38;6.32;;;-0.70;99.90;;;;;;5112777;28;20059;-50
2021/12/03 16:25:47;;;;;;;19.77;8.65;;;-0.90;99.90;;;;;;5078755;28;20655;-50
2021/12/03 16:50:46;;;;;;;36.53;14.35;;;-1.00;99.90;;;;;;5098229;28;20119;-51
2021/12/03 16:53:09;;;;;;;47.17;18.63;;;-1.10;99.90;;;;;;5100460;28;20089;-51
2021/12/03 16:55:36;;;;;;;29.77;12.93;;;-1.10;99.90;;;;;;5094186;28;20119;-53
2021/12/03 16:58:03;;;;;;;28.10;12.95;;;-1.10;99.90;;;;;;5075527;28;20630;-52
2021/12/03 17:00:36;;;;;;;19.10;9.48;;;-1.20;99.90;;;;;;5092259;28;20714;-51
2021/12/03 17:03:09;;;;;;;28.02;11.93;;;-1.20;99.90;;;;;;5093166;28;20094;-51
2021/12/03 17:22:21;;;;;;;18.98;7.88;;;-1.30;99.90;;;;;;5072016;28;20066;-51
2021/12/03 17:28:40;;;;;;;36.90;12.95;;;-1.30;99.90;;;;;;5103308;28;20043;-51
2021/12/03 18:00:11;;;;;;;23.02;9.30;;;-1.50;99.90;;;;;;5108738;28;20080;-51
2021/12/03 18:02:43;;;;;;;22.67;10.52;;;-1.50;99.90;;;;;;5107352;28;20063;-51
2021/12/03 18:05:24;;;;;;;19.75;9.75;;;-1.50;99.90;;;;;;5111863;28;20040;-50
2021/12/03 18:10:46;;;;;;;18.75;8.25;;;-1.50;99.90;;;;;;5108179;28;20048;-52
2021/12/03 18:13:36;;;;;;;24.38;10.00;;;-1.60;99.90;;;;;;5102351;28;20043;-52
2021/12/03 18:16:27;;;;;;;21.90;10.35;;;-1.60;99.90;;;;;;5102691;28;20055;-54
2021/12/03 18:19:29;;;;;;;24.35;10.07;;;-1.60;99.90;;;;;;5107621;28;20032;-52
2021/12/03 18:43:52;;;;;;;66.35;24.55;;;-1.70;99.90;;;;;;5097811;28;20044;-54
2021/12/03 18:54:29;;;;;;;37.45;14.43;;;-1.60;99.90;;;;;;5098498;28;20062;-51
2021/12/03 18:57:02;;;;;;;35.67;15.95;;;-1.70;99.90;;;;;;5108599;28;20621;-52
2021/12/03 18:59:29;;;;;;;31.55;14.35;;;-1.70;99.90;;;;;;5099417;28;20036;-51
2021/12/03 19:01:56;;;;;;;29.00;14.52;;;-1.70;99.90;;;;;;5108281;28;20042;-51
2021/12/03 19:04:31;;;;;;;;;;;-1.80;99.90;;;;;;5106703;28;20036;-50
2021/12/03 19:07:08;;;;;;;77.65;31.27;;;-1.80;99.90;;;;;;5108280;28;19920;-51
2021/12/03 19:09:41;;;;;;;36.20;14.47;;;-1.80;99.90;;;;;;5107075;28;20100;-50
2021/12/03 19:12:10;;;;;;;34.95;16.55;;;-1.90;99.90;;;;;;5107570;28;20492;-53
2021/12/03 19:14:40;;;;;;;31.95;16.15;;;-1.90;99.90;;;;;;5105122;28;20497;-54
2021/12/03 19:17:08;;;;;;;36.97;16.55;;;-2.00;99.90;;;;;;5107857;28;20070;-54
2021/12/03 19:19:41;;;;;;;39.97;14.68;;;-2.00;99.90;;;;;;5107671;28;20520;-50
2021/12/03 19:22:08;;;;;;;32.50;15.68;;;-2.00;99.90;;;;;;5101084;28;20047;-51
2021/12/03 19:24:35;;;;;;;30.33;14.95;;;-2.10;99.90;;;;;;5107234;28;20040;-50
2021/12/03 19:27:03;;;;;;;30.60;14.32;;;-2.10;99.90;;;;;;5108882;28;20093;-53
2021/12/03 19:29:33;;;;;;;28.20;13.15;;;-2.10;99.90;;;;;;5106235;28;20040;-51
2021/12/03 19:32:00;;;;;;;25.02;11.75;;;-2.10;99.90;;;;;;5111413;28;20085;-53
2021/12/03 19:34:27;;;;;;;28.23;12.73;;;-2.20;99.90;;;;;;5111808;28;20064;-53
2021/12/03 19:36:55;;;;;;;27.25;14.25;;;-2.20;99.90;;;;;;5111078;28;20104;-52
2021/12/03 19:39:25;;;;;;;19.10;9.20;;;-2.20;99.90;;;;;;5110921;28;20046;-50
2021/12/03 19:44:35;;;;;;;18.75;9.45;;;-2.20;99.90;;;;;;5106660;28;20060;-52
2021/12/03 19:47:04;;;;;;;16.60;8.25;;;-2.20;99.90;;;;;;5110033;28;20493;-54
2021/12/03 19:52:05;;;;;;;21.17;8.23;;;-2.20;99.90;;;;;;5110471;28;20489;-54
2021/12/03 19:54:31;;;;;;;18.75;7.30;;;-2.20;99.90;;;;;;5104120;28;20051;-51
2021/12/03 19:56:58;;;;;;;22.05;8.43;;;-2.20;99.90;;;;;;5110059;28;20051;-53
2021/12/03 19:59:25;;;;;;;29.65;9.68;;;-2.10;99.90;;;;;;5104660;28;20040;-53
2021/12/03 20:01:52;;;;;;;17.92;7.10;;;-2.10;99.90;;;;;;5107467;28;20100;-52
2021/12/03 20:04:19;;;;;;;20.00;7.63;;;-2.10;99.90;;;;;;5105695;28;20093;-50
2021/12/03 20:06:46;;;;;;;23.92;8.77;;;-2.10;99.90;;;;;;5108399;28;20492;-52
2021/12/03 20:09:20;;;;;;;20.38;8.52;;;-2.10;99.90;;;;;;5106762;28;20424;-51
2021/12/03 20:12:03;;;;;;;20.75;9.60;;;-2.10;99.90;;;;;;5109282;28;20046;-51
2021/12/03 20:14:30;;;;;;;;;;;-2.10;99.90;;;;;;5111113;28;20107;-49